Time;durP1;ratioP1;P1;durP2;ratioP2;P2;SDS_P1;SDS_P2;PMS_P1;PMS_P2;Temp;Humidity;BMP_temperature;BMP_pressure;BME280_temperature;BME280_humidity;BME280_pressure;Samples;Min_cycle;Max_cycle;Signal;HPM_P1;HPM_P2
2023/08/29 00:01:16;;;;;;;;;;;;;;;18.13;100.00;95616.42;107724;1302;22485;-91
2023/08/29 00:04:03;;;;;;;;;;;;;;;18.14;100.00;95619.49;107582;1309;124924;-91
2023/08/29 00:06:32;;;;;;;;;;;;;;;18.14;100.00;95624.59;107816;1309;23366;-91
2023/08/29 00:09:15;;;;;;;;;;;;;;;18.14;100.00;95638.52;107771;1302;125027;-91
2023/08/29 00:12:03;;;;;;;;;;;;;;;18.13;100.00;95640.14;107668;1309;22445;-91
2023/08/29 00:14:30;;;;;;;;;;;;;;;18.13;100.00;95637.67;107739;1308;22482;-92
2023/08/29 00:17:17;;;;;;;;;;;;;;;18.12;100.00;95637.56;107817;1301;22576;-91
2023/08/29 00:20:04;;;;;;;;;;;;;;;18.10;100.00;95644.91;107735;1305;22505;-91
2023/08/29 00:22:52;;;;;;;;;;;;;;;18.06;100.00;95639.87;107626;1304;125382;-91
2023/08/29 00:25:19;;;;;;;;;;;;;;;18.00;100.00;95632.42;107783;1304;22565;-91
2023/08/29 00:27:49;;;;;;;;;;;;;;;17.95;100.00;95635.42;107603;1309;124868;-91
2023/08/29 00:30:20;;;;;;;;;;;;;;;17.89;100.00;95653.73;107756;1304;22590;-91
2023/08/29 00:33:06;;;;;;;;;;;;;;;17.84;100.00;95659.89;107697;1302;125017;-91
2023/08/29 00:35:35;;;;;;;;;;;;;;;17.79;100.00;95665.40;107784;1305;22447;-91
2023/08/29 00:38:20;;;;;;;;;;;;;;;17.68;100.00;95662.63;107725;1304;22452;-91
2023/08/29 00:40:49;;;;;;;;;;;;;;;17.61;100.00;95663.33;107629;1308;125245;-91
2023/08/29 00:43:17;;;;;;;;;;;;;;;17.56;100.00;95667.74;107762;1302;22555;-91
2023/08/29 00:46:03;;;;;;;;;;;;;;;17.50;100.00;95667.83;107695;1303;124786;-91
2023/08/29 00:48:49;;;;;;;;;;;;;;;17.42;100.00;95661.32;107794;1303;23233;-91
2023/08/29 00:51:35;;;;;;;;;;;;;;;17.35;100.00;95662.79;107687;1302;125277;-91
2023/08/29 00:54:21;;;;;;;;;;;;;;;17.33;100.00;95648.27;107786;1305;22462;-91
2023/08/29 00:56:49;;;;;;;;;;;;;;;17.30;100.00;95641.09;107653;1309;123853;-91
2023/08/29 00:59:20;;;;;;;;;;;;;;;17.28;100.00;95627.83;107842;1302;22468;-91
2023/08/29 01:01:57;;;;;;;;;;;;;;;17.24;100.00;95618.48;107757;1304;22492;-91
2023/08/29 01:04:23;;;;;;;;;;;;;;;17.21;100.00;95613.34;107667;1302;125513;-91
2023/08/29 01:06:50;;;;;;;;;;;;;;;17.17;100.00;95606.63;107800;1309;22638;-91
2023/08/29 01:09:37;;;;;;;;;;;;;;;17.14;100.00;95612.83;107621;1308;124875;-91
2023/08/29 01:12:16;;;;;;;;;;;;;;;17.11;100.00;95608.13;107677;1305;22437;-91
2023/08/29 01:14:50;;;;;;;;;;;;;;;17.11;100.00;95605.98;107753;1309;22435;-91
2023/08/29 01:17:37;;;;;;;;;;;;;;;17.10;100.00;95588.64;107760;1308;22476;-91
2023/08/29 01:20:05;;;;;;;;;;;;;;;17.09;100.00;95594.04;107800;1302;23672;-91
2023/08/29 01:22:44;;;;;;;;;;;;;;;17.10;100.00;95582.81;107703;1302;124836;-91
2023/08/29 01:25:19;;;;;;;;;;;;;;;17.11;100.00;95574.27;107792;1303;22480;-91
2023/08/29 01:27:47;;;;;;;;;;;;;;;17.08;100.00;95569.70;107640;1305;124915;-91
2023/08/29 01:30:15;;;;;;;;;;;;;;;17.05;100.00;95558.21;107761;1302;22452;-91
2023/08/29 01:33:00;;;;;;;;;;;;;;;17.07;100.00;95559.06;107617;1309;124978;-91
2023/08/29 01:35:27;;;;;;;;;;;;;;;17.06;100.00;95562.84;107708;1305;23326;-91
2023/08/29 01:38:17;;;;;;;;;;;;;;;17.02;100.00;95572.71;107770;1309;22482;-91
2023/08/29 01:40:44;;;;;;;;;;;;;;;17.02;100.00;95579.69;107690;1303;124835;-92
2023/08/29 01:43:14;;;;;;;;;;;;;;;17.03;100.00;95584.58;107738;1305;22467;-91
2023/08/29 01:45:40;;;;;;;;;;;;;;;17.03;100.00;95588.73;107568;1305;124849;-91
2023/08/29 01:48:27;;;;;;;;;;;;;;;17.02;100.00;95587.51;107743;1309;23130;-91
2023/08/29 01:50:57;;;;;;;;;;;;;;;17.00;100.00;95581.40;107598;1305;125295;-91
2023/08/29 01:53:24;;;;;;;;;;;;;;;16.98;100.00;95574.55;107650;1304;22495;-90
2023/08/29 01:56:11;;;;;;;;;;;;;;;16.92;100.00;95560.66;107730;1302;22460;-90
2023/08/29 01:58:37;;;;;;;;;;;;;;;16.90;100.00;95550.27;107579;1302;125143;-90
2023/08/29 02:01:05;;;;;;;;;;;;;;;16.88;100.00;95545.27;107770;1305;23299;-91
2023/08/29 02:03:49;;;;;;;;;;;;;;;16.84;100.00;95535.35;107676;1302;124846;-91
2023/08/29 02:06:16;;;;;;;;;;;;;;;16.80;100.00;95537.56;107659;1305;22968;-91
2023/08/29 02:08:44;;;;;;;;;;;;;;;16.76;100.00;95543.45;107807;1309;22502;-91
2023/08/29 02:11:19;;;;;;;;;;;;;;;16.73;100.00;95529.52;107740;1309;22676;-91
2023/08/29 02:13:45;;;;;;;;;;;;;;;16.73;100.00;95520.81;107726;1309;23161;-91
2023/08/29 02:16:13;;;;;;;;;;;;;;;16.75;100.00;95529.66;107649;1305;125138;-91
2023/08/29 02:18:41;;;;;;;;;;;;;;;16.75;100.00;95534.05;107701;1304;22457;-91
2023/08/29 02:21:08;;;;;;;;;;;;;;;16.75;100.00;95542.01;107527;1309;125007;-91
2023/08/29 02:23:35;;;;;;;;;;;;;;;16.77;100.00;95550.38;107715;1304;22475;-91
2023/08/29 02:26:04;;;;;;;;;;;;;;;16.75;100.00;95552.54;107756;1301;22550;-91
2023/08/29 02:28:36;;;;;;;;;;;;;;;16.74;100.00;95550.31;107667;1303;124892;-92
2023/08/29 02:31:10;;;;;;;;;;;;;;;16.70;100.00;95547.17;107750;1309;23179;-91
2023/08/29 02:33:37;;;;;;;;;;;;;;;16.69;100.00;95540.50;107591;1309;124994;-90
2023/08/29 02:36:06;;;;;;;;;;;;;;;16.70;100.00;95531.38;107814;1309;23174;-91
2023/08/29 02:38:33;;;;;;;;;;;;;;;16.70;100.00;95532.80;107736;1305;22515;-91
2023/08/29 02:40:59;;;;;;;;;;;;;;;16.72;100.00;95549.55;107750;1308;125171;-91
2023/08/29 02:43:45;;;;;;;;;;;;;;;16.71;100.00;95541.14;107715;1305;23245;-90
2023/08/29 02:46:11;;;;;;;;;;;;;;;16.66;100.00;95521.39;107650;1309;125220;-91
2023/08/29 02:48:42;;;;;;;;;;;;;;;16.62;100.00;95521.66;107732;1309;22460;-91
2023/08/29 02:51:08;;;;;;;;;;;;;;;16.59;100.00;95513.40;107501;1309;125027;-91
2023/08/29 02:53:36;;;;;;;;;;;;;;;16.56;100.00;95508.32;107732;1309;22433;-92
2023/08/29 02:56:02;;;;;;;;;;;;;;;16.52;100.00;95498.45;107756;1306;22449;-91
2023/08/29 02:58:29;;;;;;;;;;;;;;;16.47;100.00;95492.78;107604;1304;125437;-91
2023/08/29 03:00:56;;;;;;;;;;;;;;;16.43;100.00;95508.56;107750;1302;22585;-90
2023/08/29 03:03:24;;;;;;;;;;;;;;;16.40;100.00;95522.61;107610;1309;125073;-91
2023/08/29 03:05:57;;;;;;;;;;;;;;;16.38;100.00;95516.95;107755;1302;22460;-91
2023/08/29 03:08:24;;;;;;;;;;;;;;;16.35;100.00;95503.51;107716;1308;22543;-90
2023/08/29 03:11:10;;;;;;;;;;;;;;;16.36;100.00;95498.22;107170;1305;124837;-91
2023/08/29 03:13:37;;;;;;;;;;;;;;;16.36;100.00;95490.25;107800;1302;22465;-91
2023/08/29 03:16:14;;;;;;;;;;;;;;;16.36;100.00;95493.23;107647;1309;125058;-90
2023/08/29 03:19:00;;;;;;;;;;;;;;;16.33;100.00;95494.61;107676;1309;22555;-91
2023/08/29 03:21:28;;;;;;;;;;;;;;;16.32;100.00;95500.27;107648;1303;125088;-90
2023/08/29 03:23:55;;;;;;;;;;;;;;;16.29;100.00;95489.89;107749;1302;22519;-91
2023/08/29 03:26:27;;;;;;;;;;;;;;;16.25;100.00;95476.01;107787;1301;22552;-91
2023/08/29 03:28:54;;;;;;;;;;;;;;;16.20;100.00;95483.66;107663;1302;125037;-91
2023/08/29 03:31:20;;;;;;;;;;;;;;;16.18;100.00;95479.28;107695;1307;22441;-92
2023/08/29 03:34:06;;;;;;;;;;;;;;;16.19;100.00;95472.75;107626;1302;126250;-92
2023/08/29 03:36:42;;;;;;;;;;;;;;;16.19;100.00;95479.41;107795;1309;22487;-91
2023/08/29 03:39:08;;;;;;;;;;;;;;;16.20;100.00;95478.94;107716;1307;123924;-91
2023/08/29 03:41:35;;;;;;;;;;;;;;;16.20;100.00;95480.20;107704;1309;22470;-91
2023/08/29 03:44:23;;;;;;;;;;;;;;;16.17;100.00;95474.14;107748;1305;22486;-89
2023/08/29 03:46:50;;;;;;;;;;;;;;;16.18;100.00;95485.10;107636;1305;125515;-91
2023/08/29 03:49:18;;;;;;;;;;;;;;;16.20;100.00;95479.88;107784;1302;23163;-90
2023/08/29 03:51:53;;;;;;;;;;;;;;;16.21;100.00;95476.66;107632;1305;125539;-91
2023/08/29 03:54:18;;;;;;;;;;;;;;;16.24;100.00;95469.30;107861;1309;22534;-90
2023/08/29 03:57:05;;;;;;;;;;;;;;;16.26;100.00;95444.94;107676;1301;125034;-90
2023/08/29 03:59:31;;;;;;;;;;;;;;;16.28;100.00;95430.42;107727;1301;22505;-91
2023/08/29 04:02:06;;;;;;;;;;;;;;;16.30;100.00;95429.04;107737;1305;22492;-91
2023/08/29 04:04:37;;;;;;;;;;;;;;;16.31;100.00;95425.27;107707;1302;125058;-90
2023/08/29 04:07:25;;;;;;;;;;;;;;;16.31;100.00;95441.80;107796;1305;22493;-92
2023/08/29 04:09:51;;;;;;;;;;;;;;;16.32;100.00;95448.73;107680;1298;124853;-90
2023/08/29 04:12:17;;;;;;;;;;;;;;;16.29;100.00;95445.75;107801;1309;23354;-91
2023/08/29 04:15:04;;;;;;;;;;;;;;;16.27;100.00;95434.70;107666;1301;125038;-90
2023/08/29 04:17:51;;;;;;;;;;;;;;;16.29;100.00;95444.02;107785;1305;22467;-91
2023/08/29 04:20:37;;;;;;;;;;;;;;;16.31;100.00;95450.55;107798;1302;22479;-91
2023/08/29 04:23:07;;;;;;;;;;;;;;;16.33;100.00;95454.08;107687;1305;125516;-91
2023/08/29 04:25:58;;;;;;;;;;;;;;;16.34;100.00;95451.84;107782;1304;22464;-91
2023/08/29 04:28:27;;;;;;;;;;;;;;;16.34;100.00;95454.05;107666;1309;124999;-92
2023/08/29 04:31:13;;;;;;;;;;;;;;;16.37;100.00;95456.91;107799;1301;22469;-92
2023/08/29 04:33:42;;;;;;;;;;;;;;;16.41;100.00;95456.50;107668;1309;124803;-91
2023/08/29 04:36:08;;;;;;;;;;;;;;;16.44;100.00;95449.42;107765;1307;23337;-91
2023/08/29 04:38:35;;;;;;;;;;;;;;;16.46;100.00;95446.57;107759;1302;23158;-91
2023/08/29 04:41:01;;;;;;;;;;;;;;;16.47;100.00;95430.65;107715;1303;125225;-91
2023/08/29 04:43:32;;;;;;;;;;;;;;;16.48;100.00;95429.03;107769;1302;22475;-90
2023/08/29 04:45:58;;;;;;;;;;;;;;;16.51;100.00;95430.63;107810;1306;124913;-91
2023/08/29 04:48:24;;;;;;;;;;;;;;;16.50;100.00;95427.10;107736;1308;22488;-91
2023/08/29 04:51:10;;;;;;;;;;;;;;;16.51;100.00;95429.70;107639;1309;125034;-91
2023/08/29 04:53:38;;;;;;;;;;;;;;;16.54;100.00;95418.50;107813;1302;22458;-91
2023/08/29 04:56:24;;;;;;;;;;;;;;;16.55;100.00;95394.54;107780;1309;23284;-91
2023/08/29 04:59:11;;;;;;;;;;;;;;;16.56;100.00;95394.77;107689;1302;125216;-91
2023/08/29 05:01:57;;;;;;;;;;;;;;;16.59;100.00;95390.39;107811;1301;23168;-91
2023/08/29 05:04:44;;;;;;;;;;;;;;;16.60;100.00;95400.30;107693;1302;125000;-90
2023/08/29 05:07:30;;;;;;;;;;;;;;;16.61;100.00;95406.17;107750;1309;22471;-91
2023/08/29 05:09:57;;;;;;;;;;;;;;;16.61;100.00;95407.33;107628;1302;125296;-90
2023/08/29 05:12:43;;;;;;;;;;;;;;;16.63;100.00;95406.63;107824;1309;22471;-91
2023/08/29 05:15:10;;;;;;;;;;;;;;;16.65;100.00;95400.98;107659;1309;125052;-92
2023/08/29 05:17:56;;;;;;;;;;;;;;;16.65;100.00;95404.40;107861;1302;22450;-91
2023/08/29 05:20:27;;;;;;;;;;;;;;;16.68;100.00;95406.49;107751;1302;22441;-91
2023/08/29 05:23:13;;;;;;;;;;;;;;;16.69;100.00;95407.25;107542;1309;125038;-91
2023/08/29 05:25:40;;;;;;;;;;;;;;;16.73;100.00;95402.88;107685;1304;23196;-91
2023/08/29 05:28:15;;;;;;;;;;;;;;;16.71;100.00;95404.33;107739;1302;125824;-90
2023/08/29 05:30:42;;;;;;;;;;;;;;;16.70;100.00;95396.51;107755;1302;23114;-90
2023/08/29 05:33:11;;;;;;;;;;;;;;;16.72;100.00;95392.80;107637;1309;125282;-91
2023/08/29 05:35:57;;;;;;;;;;;;;;;16.72;100.00;95406.49;107841;1309;22471;-91
2023/08/29 05:38:27;;;;;;;;;;;;;;;16.71;100.00;95411.72;107751;1309;22468;-89
2023/08/29 05:40:55;;;;;;;;;;;;;;;16.69;100.00;95400.84;107641;1305;125060;-91
2023/08/29 05:43:22;;;;;;;;;;;;;;;16.71;100.00;95371.70;107794;1303;23231;-91
2023/08/29 05:45:49;;;;;;;;;;;;;;;16.72;100.00;95366.89;107666;1302;125000;-91
2023/08/29 05:48:35;;;;;;;;;;;;;;;16.71;100.00;95378.78;107725;1305;22460;-91
2023/08/29 05:51:02;;;;;;;;;;;;;;;16.72;100.00;95384.61;107677;1309;126233;-91
2023/08/29 05:53:29;;;;;;;;;;;;;;;16.73;100.00;95387.52;107802;1309;22559;-92
2023/08/29 05:55:57;;;;;;;;;;;;;;;16.71;100.00;95407.38;107772;1302;23358;-91
2023/08/29 05:58:25;;;;;;;;;;;;;;;16.71;100.00;95426.30;107659;1309;124938;-91
2023/08/29 06:01:11;;;;;;;;;;;;;;;16.72;100.00;95434.82;107761;1309;22488;-91
2023/08/29 06:03:37;;;;;;;;;;;;;;;16.74;100.00;95438.27;107628;1303;125343;-91
2023/08/29 06:06:23;;;;;;;;;;;;;;;16.76;100.00;95440.17;107721;1303;22590;-90
2023/08/29 06:08:51;;;;;;;;;;;;;;;16.76;100.00;95434.20;107707;1302;22629;-91
2023/08/29 06:11:17;;;;;;;;;;;;;;;16.77;100.00;95428.98;107668;1303;124934;-91
2023/08/29 06:13:44;;;;;;;;;;;;;;;16.79;100.00;95419.03;107748;1309;22500;-91
2023/08/29 06:16:12;;;;;;;;;;;;;;;16.81;100.00;95382.84;107660;1302;125068;-91
2023/08/29 06:18:39;;;;;;;;;;;;;;;16.87;100.00;95356.92;107716;1309;22508;-92
2023/08/29 06:21:06;;;;;;;;;;;;;;;16.95;100.00;95320.50;107663;1309;125164;-92
2023/08/29 06:23:34;;;;;;;;;;;;;;;17.01;100.00;95331.99;107751;1302;22473;-91
2023/08/29 06:26:02;;;;;;;;;;;;;;;17.06;100.00;95362.85;107756;1302;23197;-91
2023/08/29 06:28:29;;;;;;;;;;;;;;;17.11;100.00;95389.75;107679;1309;125142;-91
2023/08/29 06:31:08;;;;;;;;;;;;;;;17.14;100.00;95396.44;107735;1302;22477;-91
2023/08/29 06:33:37;;;;;;;;;;;;;;;17.15;100.00;95391.77;107773;1301;127479;-91
2023/08/29 06:36:03;;;;;;;;;;;;;;;17.19;100.00;95368.34;107758;1303;22502;-91
2023/08/29 06:38:33;;;;;;;;;;;;;;;17.23;100.00;95351.46;107727;1302;22493;-91
2023/08/29 06:40:59;;;;;;;;;;;;;;;17.26;100.00;95343.06;107673;1308;125360;-91
2023/08/29 06:43:27;;;;;;;;;;;;;;;17.28;100.00;95353.27;107766;1302;22480;-92
2023/08/29 06:46:13;;;;;;;;;;;;;;;17.28;100.00;95358.36;107654;1302;124956;-91
2023/08/29 06:48:59;;;;;;;;;;;;;;;17.30;100.00;95364.79;107673;1308;22489;-91
2023/08/29 06:51:26;;;;;;;;;;;;;;;17.33;100.00;95369.16;107652;1303;125459;-91
2023/08/29 06:53:52;;;;;;;;;;;;;;;17.38;100.00;95364.48;107713;1302;22529;-91
2023/08/29 06:56:35;;;;;;;;;;;;;;;17.46;100.00;95358.89;107749;1309;23211;-91
2023/08/29 06:59:03;;;;;;;;;;;;;;;17.52;100.00;95359.10;107637;1305;125977;-91
2023/08/29 07:01:33;;;;;;;;;;;;;;;17.57;100.00;95359.59;107763;1309;22578;-91
2023/08/29 07:04:00;;;;;;;;;;;;;;;17.59;100.00;95360.64;107655;1309;125288;-91
2023/08/29 07:06:46;;;;;;;;;;;;;;;17.63;100.00;95375.06;107715;1309;22493;-91
2023/08/29 07:09:32;;;;;;;;;;;;;;;17.71;100.00;95389.39;107670;1304;124445;-91
2023/08/29 07:12:18;;;;;;;;;;;;;;;17.77;100.00;95388.23;107738;1309;22497;-91
2023/08/29 07:14:48;;;;;;;;;;;;;;;17.83;100.00;95385.54;107732;1309;22449;-92
2023/08/29 07:17:35;;;;;;;;;;;;;;;17.89;100.00;95385.95;107738;1305;22455;-91
2023/08/29 07:20:08;;;;;;;;;;;;;;;17.93;100.00;95381.53;107784;1309;22609;-91
2023/08/29 07:22:37;;;;;;;;;;;;;;;17.99;100.00;95379.36;107630;1304;126016;-90
2023/08/29 07:25:05;;;;;;;;;;;;;;;18.06;100.00;95374.89;107777;1308;22492;-91
2023/08/29 07:27:32;;;;;;;;;;;;;;;18.15;100.00;95381.46;107692;1302;125431;-91
2023/08/29 07:30:03;;;;;;;;;;;;;;;18.26;100.00;95393.38;107736;1302;22555;-91
2023/08/29 07:32:30;;;;;;;;;;;;;;;18.35;100.00;95393.63;107734;1302;22480;-91
2023/08/29 07:34:57;;;;;;;;;;;;;;;18.42;100.00;95401.84;107669;1309;124905;-91
2023/08/29 07:37:43;;;;;;;;;;;;;;;18.48;100.00;95407.91;107765;1301;22511;-91
2023/08/29 07:40:09;;;;;;;;;;;;;;;18.55;100.00;95411.32;107627;1309;124840;-90
2023/08/29 07:42:55;;;;;;;;;;;;;;;18.63;100.00;95411.75;107784;1309;23018;-90
2023/08/29 07:45:22;;;;;;;;;;;;;;;18.69;100.00;95405.46;107673;1309;125097;-91
2023/08/29 07:47:49;;;;;;;;;;;;;;;18.72;100.00;95404.13;107811;1309;22457;-92
2023/08/29 07:50:15;;;;;;;;;;;;;;;18.75;100.00;95405.88;107755;1307;22455;-91
2023/08/29 07:52:42;;;;;;;;;;;;;;;18.80;100.00;95402.90;107711;1309;125196;-92
2023/08/29 07:55:25;;;;;;;;;;;;;;;18.88;100.00;95405.14;107758;1305;22550;-91
2023/08/29 07:57:52;;;;;;;;;;;;;;;18.97;100.00;95412.48;107663;1309;125354;-90
2023/08/29 08:00:18;;;;;;;;;;;;;;;19.03;100.00;95420.25;107699;1302;22548;-90
2023/08/29 08:02:44;;;;;;;;;;;;;;;19.09;100.00;95423.48;107738;1305;22571;-90
2023/08/29 08:08:15;;;;;;;;;;;;;;;19.09;100.00;95414.54;107766;1302;22688;-91
2023/08/29 08:10:42;;;;;;;;;;;;;;;19.07;100.00;95418.75;107698;1309;124936;-91
2023/08/29 08:13:28;;;;;;;;;;;;;;;19.07;100.00;95417.16;107790;1309;22502;-90
2023/08/29 08:16:14;;;;;;;;;;;;;;;19.10;100.00;95414.39;107690;1302;124903;-91
2023/08/29 08:19:00;;;;;;;;;;;;;;;19.13;100.00;95416.91;107743;1309;22487;-91
2023/08/29 08:21:34;;;;;;;;;;;;;;;19.21;100.00;95412.25;107621;1305;125061;-91
2023/08/29 08:24:00;;;;;;;;;;;;;;;19.25;100.00;95411.48;107769;1303;22481;-91
2023/08/29 08:26:27;;;;;;;;;;;;;;;19.27;100.00;95405.63;107604;1306;23489;-91
2023/08/29 08:28:54;;;;;;;;;;;;;;;19.28;100.00;95404.80;107642;1309;125050;-91
2023/08/29 08:31:22;;;;;;;;;;;;;;;19.27;100.00;95403.38;107761;1302;22516;-91
2023/08/29 08:34:05;;;;;;;;;;;;;;;19.27;100.00;95408.54;107673;1302;124972;-91
2023/08/29 08:36:32;;;;;;;;;;;;;;;19.26;100.00;95407.27;107774;1302;22488;-91
2023/08/29 08:38:58;;;;;;;;;;;;;;;19.25;100.00;95407.05;107743;1305;22474;-90
2023/08/29 08:41:44;;;;;;;;;;;;;;;19.25;100.00;95405.63;107770;1309;22474;-90
2023/08/29 08:44:11;;;;;;;;;;;;;;;19.27;100.00;95407.48;107898;1309;22487;-91
2023/08/29 08:46:38;;;;;;;;;;;;;;;19.33;100.00;95402.59;107593;1305;124917;-91
2023/08/29 08:49:04;;;;;;;;;;;;;;;19.42;100.00;95406.77;107691;1302;22501;-91
2023/08/29 08:51:50;;;;;;;;;;;;;;;19.51;100.00;95419.70;107668;1309;125295;-91
2023/08/29 08:54:17;;;;;;;;;;;;;;;19.58;100.00;95426.27;107783;1303;22511;-91
2023/08/29 08:56:43;;;;;;;;;;;;;;;19.61;100.00;95443.52;107745;1307;22588;-91
2023/08/29 08:59:18;;;;;;;;;;;;;;;19.59;100.00;95447.04;107654;1305;124990;-91
2023/08/29 09:01:48;;;;;;;;;;;;;;;19.58;100.00;95456.58;107750;1305;22425;-91
2023/08/29 09:04:20;;;;;;;;;;;;;;;19.59;100.00;95460.48;107686;1306;124985;-91
2023/08/29 09:07:03;;;;;;;;;;;;;;;19.61;100.00;95464.91;107759;1302;22468;-92
2023/08/29 09:09:29;;;;;;;;;;;;;;;19.64;100.00;95473.51;107645;1302;125021;-91
2023/08/29 09:11:56;;;;;;;;;;;;;;;19.67;100.00;95483.05;107798;1302;22456;-91
2023/08/29 09:14:23;;;;;;;;;;;;;;;19.68;100.00;95492.90;107763;1309;22505;-91
2023/08/29 09:17:08;;;;;;;;;;;;;;;19.65;100.00;95499.86;107722;1302;124906;-91
2023/08/29 09:19:36;;;;;;;;;;;;;;;19.65;100.00;95506.23;107792;1309;22498;-92
2023/08/29 09:22:20;;;;;;;;;;;;;;;19.62;100.00;95504.27;107711;1309;125201;-92
2023/08/29 09:24:47;;;;;;;;;;;;;;;19.60;100.00;95507.97;107782;1302;22461;-91
2023/08/29 09:27:39;;;;;;;;;;;;;;;19.58;100.00;95508.39;107660;1309;125015;-91
2023/08/29 09:30:12;;;;;;;;;;;;;;;19.58;100.00;95505.54;107739;1309;23227;-91
2023/08/29 09:32:47;;;;;;;;;;;;;;;19.59;100.00;95507.11;107702;1306;22448;-92
2023/08/29 09:35:14;;;;;;;;;;;;;;;19.62;100.00;95503.64;107648;1302;125092;-91
2023/08/29 09:37:42;;;;;;;;;;;;;;;19.65;100.00;95504.44;107777;1302;23243;-92
2023/08/29 09:40:28;;;;;;;;;;;;;;;19.72;100.00;95511.85;107654;1304;125502;-91
2023/08/29 09:43:13;;;;;;;;;;;;;;;19.83;100.00;95516.03;107742;1309;22482;-92
2023/08/29 09:45:39;;;;;;;;;;;;;;;19.86;100.00;95515.84;107620;1310;125011;-91
2023/08/29 09:48:09;;;;;;;;;;;;;;;19.88;100.00;95516.64;107798;1302;22485;-92
2023/08/29 09:52:02;;;;;;;;;;;;;;;19.91;100.00;95509.73;105470;1310;544430;-91
2023/08/29 09:54:51;;;;;;;;;;;;;;;19.82;100.00;95517.51;108407;1281;22750;-90
2023/08/29 09:57:24;;;;;;;;;;;;;;;19.77;100.00;95532.98;108391;1284;124863;-91
2023/08/29 10:00:13;;;;;;;;;;;;;;;19.76;100.00;95547.17;108439;1280;25292;-90
2023/08/29 10:03:00;;;;;;;;;;;;;;;19.78;100.00;95547.23;108563;1280;22523;-91
2023/08/29 10:05:33;;;;;;;;;;;;;;;19.78;100.00;95551.71;107751;1280;843454;-89
2023/08/29 10:08:23;;;;;;;;;;;;;;;19.79;100.00;95550.45;108644;1281;22521;-90
2023/08/29 10:11:04;;;;;;;;;;;;;;;19.76;100.00;95543.17;108586;1285;123956;-91
2023/08/29 10:13:50;;;;;;;;;;;;;;;19.75;100.00;95542.27;108535;1285;22558;-91
2023/08/29 10:16:37;;;;;;;;;;;;;;;19.71;100.00;95539.05;108756;1284;125922;-91
2023/08/29 10:19:27;;;;;;;;;;;;;;;19.70;100.00;95540.52;108701;1284;22586;-91
2023/08/29 10:22:17;;;;;;;;;;;;;;;19.68;100.00;95535.59;108580;1277;124295;-92
2023/08/29 10:24:44;;;;;;;;;;;;;;;19.67;100.00;95533.95;108502;1280;22559;-91
2023/08/29 10:27:12;;;;;;;;;;;;;;;19.67;100.00;95537.85;108521;1278;125662;-91
2023/08/29 10:29:51;;;;;;;;;;;;;;;19.66;100.00;95538.95;108654;1280;22680;-91
2023/08/29 10:32:38;;;;;;;;;;;;;;;19.68;100.00;95540.33;108657;1284;22564;-91
2023/08/29 10:35:26;;;;;;;;;;;;;;;19.67;100.00;95540.66;108494;1283;124615;-89
2023/08/29 10:38:09;;;;;;;;;;;;;;;19.66;100.00;95538.59;108733;1276;23040;-90
2023/08/29 10:41:00;;;;;;;;;;;;;;;19.65;100.00;95547.02;108660;1277;124146;-90
2023/08/29 10:43:49;;;;;;;;;;;;;;;19.65;100.00;95550.14;108628;1277;23282;-91
2023/08/29 10:46:51;;;;;;;;;;;;;;;19.68;100.00;95547.88;108512;1284;125556;-91
2023/08/29 10:49:20;;;;;;;;;;;;;;;19.72;100.00;95550.02;108785;1284;22806;-92
2023/08/29 10:52:08;;;;;;;;;;;;;;;19.74;100.00;95554.45;108660;1284;125162;-92
2023/08/29 10:55:01;;;;;;;;;;;;;;;19.74;100.00;95539.58;108733;1276;22511;-90
2023/08/29 10:57:49;;;;;;;;;;;;;;;19.75;100.00;95539.91;108522;1284;124364;-91
2023/08/29 11:00:37;;;;;;;;;;;;;;;19.73;100.00;95547.27;108697;1284;24590;-91
2023/08/29 11:03:07;;;;;;;;;;;;;;;19.70;100.00;95544.38;108595;1283;125125;-91
2023/08/29 11:05:41;;;;;;;;;;;;;;;19.70;100.00;95546.11;108652;1284;22874;-90
2023/08/29 11:08:27;;;;;;;;;;;;;;;19.70;100.00;95555.70;108681;1285;22508;-91
2023/08/29 11:11:20;;;;;;;;;;;;;;;19.70;100.00;95566.61;108424;1282;124144;-89
2023/08/29 11:14:06;;;;;;;;;;;;;;;19.69;100.00;95562.12;108729;1284;22539;-91
2023/08/29 11:17:25;;;;;;;;;;;;;;;19.65;100.00;95550.50;108529;1284;124146;-91
2023/08/29 11:20:14;;;;;;;;;;;;;;;19.62;100.00;95556.72;108522;1284;22566;-90
2023/08/29 11:22:48;;;;;;;;;;;;;;;19.60;100.00;95559.72;108524;1278;124578;-91
2023/08/29 11:25:40;;;;;;;;;;;;;;;19.58;100.00;95565.35;108639;1283;22569;-90
2023/08/29 11:28:07;;;;;;;;;;;;;;;19.55;100.00;95561.39;108554;1283;124065;-90
2023/08/29 11:30:34;;;;;;;;;;;;;;;19.55;100.00;95549.54;108571;1276;22582;-91
2023/08/29 11:33:23;;;;;;;;;;;;;;;19.57;100.00;95552.08;108554;1281;124738;-91
2023/08/29 11:36:10;;;;;;;;;;;;;;;19.56;100.00;95554.55;108765;1284;22470;-91
2023/08/29 11:38:57;;;;;;;;;;;;;;;19.57;100.00;95557.55;108808;1275;22572;-93
2023/08/29 11:41:28;;;;;;;;;;;;;;;19.56;100.00;95565.94;108659;1278;124185;-91
2023/08/29 11:44:15;;;;;;;;;;;;;;;19.55;100.00;95567.82;108764;1280;22547;-91
2023/08/29 11:47:02;;;;;;;;;;;;;;;19.59;100.00;95576.01;108605;1278;124177;-93
2023/08/29 11:49:50;;;;;;;;;;;;;;;19.60;100.00;95575.27;108751;1278;23820;-92
2023/08/29 11:52:36;;;;;;;;;;;;;;;19.61;100.00;95578.02;108528;1283;124320;-90
2023/08/29 11:55:18;;;;;;;;;;;;;;;19.61;100.00;95582.44;108628;1281;22563;-91
2023/08/29 11:58:06;;;;;;;;;;;;;;;19.58;100.00;95582.27;108716;1278;124305;-90
2023/08/29 12:00:54;;;;;;;;;;;;;;;19.53;100.00;95581.17;108740;1278;22571;-91
2023/08/29 12:03:22;;;;;;;;;;;;;;;19.47;100.00;95588.61;108604;1284;124510;-91
2023/08/29 12:06:12;;;;;;;;;;;;;;;19.36;100.00;95598.84;108686;1278;22563;-92
2023/08/29 12:09:00;;;;;;;;;;;;;;;19.32;100.00;95607.60;108746;1277;22637;-91
2023/08/29 12:12:48;;;;;;;;;;;;;;;19.31;100.00;95599.44;105844;1306;556834;-91
2023/08/29 12:15:35;;;;;;;;;;;;;;;19.28;100.00;95578.84;108394;1284;124170;-92
2023/08/29 12:18:26;;;;;;;;;;;;;;;19.28;100.00;95577.88;108295;1289;23002;-92
2023/08/29 12:20:52;;;;;;;;;;;;;;;19.26;100.00;95570.29;108801;1275;23246;-91
2023/08/29 12:23:26;;;;;;;;;;;;;;;19.22;100.00;95572.02;108536;1273;124016;-92
2023/08/29 12:25:53;;;;;;;;;;;;;;;19.22;100.00;95572.54;108520;1272;310166;-92
2023/08/29 12:28:26;;;;;;;;;;;;;;;19.23;100.00;95570.70;108716;1275;124972;-91
2023/08/29 12:30:54;;;;;;;;;;;;;;;19.25;100.00;95566.23;108851;1275;23168;-90
2023/08/29 12:33:21;;;;;;;;;;;;;;;19.25;100.00;95561.80;108851;1272;124577;-91
2023/08/29 12:35:47;;;;;;;;;;;;;;;19.27;100.00;95564.08;108736;1275;23275;-92
2023/08/29 12:38:14;;;;;;;;;;;;;;;19.30;100.00;95572.30;108672;1278;22534;-92
2023/08/29 12:40:43;;;;;;;;;;;;;;;19.33;100.00;95569.30;108714;1275;123850;-92
2023/08/29 12:43:09;;;;;;;;;;;;;;;19.35;100.00;95566.52;108619;1277;22959;-91
2023/08/29 12:45:36;;;;;;;;;;;;;;;19.36;100.00;95560.39;108624;1278;124969;-90
2023/08/29 12:48:04;;;;;;;;;;;;;;;19.38;100.00;95557.61;108903;1273;22525;-91
2023/08/29 12:50:31;;;;;;;;;;;;;;;19.38;100.00;95553.39;108755;1276;25586;-90
2023/08/29 12:53:04;;;;;;;;;;;;;;;19.36;100.00;95550.91;108693;1269;124346;-91
2023/08/29 12:55:31;;;;;;;;;;;;;;;19.37;100.00;95545.17;108801;1271;22545;-91
2023/08/29 12:57:59;;;;;;;;;;;;;;;19.40;100.00;95543.70;108597;1272;124109;-90
2023/08/29 13:00:25;;;;;;;;;;;;;;;19.43;100.00;95543.08;108690;1275;27542;-91
2023/08/29 13:02:52;;;;;;;;;;;;;;;19.47;100.00;95546.56;108876;1278;24291;-92
2023/08/29 13:05:19;;;;;;;;;;;;;;;19.48;100.00;95541.83;108687;1278;125081;-91
2023/08/29 13:07:45;;;;;;;;;;;;;;;19.47;100.00;95532.70;108690;1275;22529;-92